Time;durP1;ratioP1;P1;durP2;ratioP2;P2;SDS_P1;SDS_P2;PMS_P1;PMS_P2;Temp;Humidity;BMP_temperature;BMP_pressure;BME280_temperature;BME280_humidity;BME280_pressure;Samples;Min_cycle;Max_cycle;Signal;HPM_P1;HPM_P2
2023/10/21 00:02:04;;;;;;;4.15;3.75;;;;;;;-145.63;58.61;39358.66;5041735;28;20048;-66
2023/10/21 00:04:30;;;;;;;4.53;3.65;;;;;;;-145.63;59.21;39341.06;5042489;28;20302;-66
2023/10/21 00:06:56;;;;;;;8.25;3.70;;;;;;;-145.63;58.75;39395.84;5042652;28;20060;-68
2023/10/21 00:09:22;;;;;;;4.55;3.67;;;;;;;-145.63;59.39;39364.53;5041224;28;20222;-67
2023/10/21 00:11:48;;;;;;;4.00;3.60;;;;;;;-145.63;59.11;39370.41;5042454;28;20218;-67
2023/10/21 00:14:14;;;;;;;5.05;3.40;;;;;;;-145.63;58.41;39384.09;5044616;28;20033;-66
2023/10/21 00:16:40;;;;;;;3.92;3.60;;;;;;;-145.63;59.05;39384.09;5046756;28;20084;-67
2023/10/21 00:19:06;;;;;;;3.88;3.47;;;;;;;-145.63;58.95;39374.31;5045381;28;20060;-67
2023/10/21 00:21:32;;;;;;;4.20;3.17;;;;;;;-145.63;58.92;39370.41;5045733;28;20329;-67
2023/10/21 00:23:57;;;;;;;3.90;3.60;;;;;;;-145.63;58.58;39364.53;5045917;28;20034;-68
2023/10/21 00:26:23;;;;;;;3.80;3.40;;;;;;;-145.63;59.20;39348.88;5045418;28;20029;-68
2023/10/21 00:28:49;;;;;;;4.75;3.92;;;;;;;-145.63;59.16;39356.72;5045935;28;20034;-68
2023/10/21 00:31:14;;;;;;;4.20;3.42;;;;;;;-145.63;59.34;39356.72;5046128;28;20060;-67
2023/10/21 00:33:40;;;;;;;4.50;4.10;;;;;;;-145.63;59.28;39368.44;5045943;28;20033;-67
2023/10/21 00:36:06;;;;;;;4.35;3.88;;;;;;;-145.63;59.32;39356.72;5045923;28;20310;-67
2023/10/21 00:38:32;;;;;;;4.53;3.63;;;;;;;-145.63;59.20;39366.50;5045715;28;20030;-67
2023/10/21 00:40:58;;;;;;;5.25;3.70;;;;;;;-145.63;59.29;39368.44;5045754;28;20029;-66
2023/10/21 00:43:34;;;;;;;4.57;3.70;;;;;;;-145.63;59.52;39366.50;5045558;28;20213;-66
2023/10/21 00:46:18;;;;;;;4.30;3.53;;;;;;;-145.63;58.82;39368.44;5026113;28;20039;-67
2023/10/21 00:48:48;;;;;;;10.30;3.90;;;;;;;-145.63;58.82;39382.13;5044103;28;20096;-67
2023/10/21 00:51:15;;;;;;;4.05;3.65;;;;;;;-145.63;58.77;39331.28;5044988;28;20096;-67
2023/10/21 00:53:41;;;;;;;4.13;3.60;;;;;;;-145.63;58.94;39350.84;5045796;28;20107;-67
2023/10/21 00:56:06;;;;;;;4.20;3.80;;;;;;;-145.63;58.61;39346.94;5045435;28;20030;-67
2023/10/21 00:58:33;;;;;;;4.78;4.07;;;;;;;-145.63;59.00;39368.44;5045265;28;20036;-67
2023/10/21 01:01:01;;;;;;;4.20;3.80;;;;;;;-145.63;58.44;39374.31;5045687;28;20029;-67
2023/10/21 01:03:29;;;;;;;3.95;3.50;;;;;;;-145.63;58.72;39354.75;5027494;28;20018;-67
2023/10/21 01:05:55;;;;;;;4.18;3.78;;;;;;;-145.63;58.99;39343.03;5044160;28;20045;-67
2023/10/21 01:08:21;;;;;;;6.78;4.40;;;;;;;-145.63;58.73;39364.53;5045178;28;20399;-67
2023/10/21 01:10:47;;;;;;;5.00;4.13;;;;;;;-145.63;58.63;39368.44;5045244;28;20033;-67
2023/10/21 01:13:12;;;;;;;5.22;3.90;;;;;;;-145.63;58.67;39362.59;5045361;28;20221;-66
2023/10/21 01:15:38;;;;;;;4.60;4.05;;;;;;;-145.63;58.60;39346.94;5044790;28;20225;-67
2023/10/21 01:18:04;;;;;;;4.18;3.78;;;;;;;-145.63;58.16;39374.31;5044874;28;20190;-66
2023/10/21 01:20:30;;;;;;;4.18;3.78;;;;;;;-145.63;58.54;39403.66;5044304;28;20117;-66
2023/10/21 01:22:56;;;;;;;5.03;4.03;;;;;;;-145.63;59.00;39360.63;5044870;28;20025;-67
2023/10/21 01:25:23;;;;;;;5.30;4.10;;;;;;;-145.63;59.11;39374.31;5044265;28;20063;-67
2023/10/21 01:27:53;;;;;;;5.50;4.00;;;;;;;-145.63;58.93;38707.44;5044935;28;20025;-68
2023/10/21 01:30:20;;;;;;;4.68;4.28;;;;;;;-145.63;58.97;39354.75;5044844;28;20068;-67
2023/10/21 01:32:47;;;;;;;4.20;3.80;;;;;;;-145.63;59.40;39356.72;5044958;28;20037;-67
2023/10/21 01:35:13;;;;;;;5.13;4.55;;;;;;;-145.63;59.01;39372.34;5044796;28;20036;-66
2023/10/21 01:37:39;;;;;;;4.78;3.90;;;;;;;-145.63;58.75;39380.19;5044472;28;20079;-68
2023/10/21 01:40:06;;;;;;;4.45;4.05;;;;;;;-145.63;58.46;39372.34;5044479;28;20033;-67
2023/10/21 01:42:34;;;;;;;6.47;4.53;;;;;;;-145.63;58.80;39395.84;5044310;28;20323;-67
2023/10/21 01:44:59;;;;;;;4.53;3.97;;;;;;;-145.63;58.59;39372.34;5044595;28;20030;-67
2023/10/21 01:47:26;;;;;;;4.93;4.43;;;;;;;-145.63;58.92;39356.72;5044118;28;20032;-68
2023/10/21 01:49:53;;;;;;;5.30;4.20;;;;;;;-145.63;59.02;39368.44;5044051;28;20048;-67
2023/10/21 01:52:19;;;;;;;4.88;4.38;;;;;;;-145.63;58.63;39352.81;5044533;28;20051;-67
2023/10/21 01:54:45;;;;;;;4.97;4.47;;;;;;;-145.63;58.95;39339.13;5044343;28;20225;-67
2023/10/21 01:57:10;;;;;;;5.28;4.78;;;;;;;-145.63;59.35;39339.13;5044365;28;20045;-67
2023/10/21 01:59:40;;;;;;;5.10;4.60;;;;;;;-145.63;58.91;39399.75;5044002;28;20044;-66
2023/10/21 02:02:05;;;;;;;5.53;4.47;;;;;;;-145.63;58.82;39366.50;5044419;28;20270;-67
2023/10/21 02:04:31;;;;;;;5.25;4.47;;;;;;;-145.63;58.84;39344.97;5044197;28;20056;-68
2023/10/21 02:06:57;;;;;;;5.90;4.50;;;;;;;-145.63;58.55;39350.84;5044235;28;20071;-67
2023/10/21 02:09:22;;;;;;;5.82;4.78;;;;;;;-145.63;58.96;39399.75;5043898;28;20079;-68
2023/10/21 02:11:48;;;;;;;5.88;5.15;;;;;;;-145.63;58.88;39352.81;5043838;28;20029;-68
2023/10/21 02:14:14;;;;;;;6.05;4.97;;;;;;;-145.63;58.68;39376.28;5043968;28;20036;-68
2023/10/21 02:16:40;;;;;;;6.10;5.57;;;;;;;-145.63;58.77;39360.63;5043769;28;20033;-68
2023/10/21 02:19:06;;;;;;;5.43;4.50;;;;;;;-145.63;58.57;39343.03;5043500;28;20309;-68
2023/10/21 02:21:33;;;;;;;5.47;4.75;;;;;;;-145.63;58.74;39331.28;5043495;28;20021;-68
2023/10/21 02:23:59;;;;;;;5.32;4.82;;;;;;;-145.63;58.59;39364.53;5043869;28;20032;-68
2023/10/21 02:26:25;;;;;;;5.80;5.20;;;;;;;-145.63;58.60;39352.81;5043697;28;20025;-68
2023/10/21 02:28:50;;;;;;;14.65;12.55;;;;;;;-145.63;58.87;39356.72;5043670;28;20281;-67
2023/10/21 02:31:16;;;;;;;5.15;4.47;;;;;;;-145.63;59.11;39399.75;5043709;28;20067;-67
2023/10/21 02:33:42;;;;;;;4.70;4.20;;;;;;;-145.63;59.38;39348.88;5043602;28;20378;-67
2023/10/21 02:36:08;;;;;;;5.72;4.70;;;;;;;-145.63;58.87;39362.59;5043494;28;20036;-67
2023/10/21 02:38:34;;;;;;;5.30;4.80;;;;;;;-145.63;58.80;39372.34;5043738;28;20300;-67
2023/10/21 02:41:03;;;;;;;5.47;4.70;;;;;;;-145.63;59.01;39346.94;5043616;28;20277;-68
2023/10/21 02:43:28;;;;;;;5.60;5.00;;;;;;;-145.63;58.63;39346.94;5043380;28;20029;-68
2023/10/21 02:45:54;;;;;;;4.90;4.47;;;;;;;-145.63;58.28;39350.84;5043361;28;20052;-68
2023/10/21 02:48:19;;;;;;;6.57;4.32;;;;;;;-145.63;58.15;39350.84;5042811;28;20071;-68
2023/10/21 02:50:45;;;;;;;5.57;4.95;;;;;;;-145.63;58.17;39364.53;5043650;28;20048;-68
2023/10/21 02:53:11;;;;;;;5.15;4.57;;;;;;;-145.63;58.26;39372.34;5043275;28;20045;-67
2023/10/21 02:55:37;;;;;;;4.35;3.95;;;;;;;-145.63;58.07;39372.34;5043075;28;20329;-68
2023/10/21 02:58:02;;;;;;;4.75;4.32;;;;;;;-145.63;58.14;39376.28;5043322;28;20029;-67
2023/10/21 03:00:28;;;;;;;6.03;3.88;;;;;;;-145.63;58.28;39362.59;5042907;28;20024;-67
2023/10/21 03:02:54;;;;;;;5.60;4.43;;;;;;;-145.63;58.28;39368.44;5042801;28;20021;-67
2023/10/21 03:05:20;;;;;;;4.93;4.40;;;;;;;-145.63;58.09;39362.59;5043065;28;20029;-68
2023/10/21 03:07:46;;;;;;;4.28;3.88;;;;;;;-145.63;57.70;39382.13;5043139;28;20022;-67
2023/10/21 03:10:11;;;;;;;4.57;3.90;;;;;;;-145.63;58.38;39384.09;5043032;28;20025;-68
2023/10/21 03:12:37;;;;;;;4.95;4.38;;;;;;;-145.63;58.29;39294.13;5042863;28;20344;-67
2023/10/21 03:15:06;;;;;;;5.15;4.03;;;;;;;-145.63;57.98;39370.41;5043267;28;20029;-68
2023/10/21 03:17:32;;;;;;;5.32;4.00;;;;;;;-145.63;58.12;39346.94;5042858;28;20056;-67
2023/10/21 03:19:58;;;;;;;5.35;4.40;;;;;;;-145.63;57.70;39360.63;5042267;28;20199;-67
2023/10/21 03:22:25;;;;;;;5.15;4.47;;;;;;;-145.63;57.43;39374.31;5041470;28;20035;-67
2023/10/21 03:24:51;;;;;;;4.60;4.20;;;;;;;-145.63;57.61;39378.22;5042861;28;20017;-67
2023/10/21 03:27:17;;;;;;;5.00;4.47;;;;;;;-145.63;57.62;39364.53;5042894;28;20025;-67
2023/10/21 03:29:42;;;;;;;8.13;4.90;;;;;;;-145.63;57.73;39358.66;5042786;28;20055;-67
2023/10/21 03:32:09;;;;;;;4.97;4.38;;;;;;;-145.63;57.94;39258.94;5042835;28;20083;-67
2023/10/21 03:34:35;;;;;;;4.43;4.03;;;;;;;-145.63;57.84;39354.75;5042938;28;20105;-66
2023/10/21 03:37:01;;;;;;;5.50;4.55;;;;;;;-145.63;57.09;39384.09;5043030;28;20025;-67
2023/10/21 03:39:26;;;;;;;5.00;4.47;;;;;;;-145.63;57.49;39403.66;5042615;28;20076;-68
2023/10/21 03:41:53;;;;;;;4.97;4.47;;;;;;;-145.63;57.44;39370.41;5042836;28;20029;-67
2023/10/21 03:44:19;;;;;;;5.82;4.60;;;;;;;-145.63;57.31;39384.09;5043032;28;20021;-67
2023/10/21 03:46:45;;;;;;;7.07;4.90;;;;;;;-145.63;57.50;39378.22;5042672;28;20456;-67
2023/10/21 03:49:11;;;;;;;5.65;4.82;;;;;;;-145.63;57.78;39388.00;5044970;28;20132;-68
2023/10/21 03:51:37;;;;;;;5.35;4.80;;;;;;;-145.63;57.43;39258.94;5046491;28;20045;-66
2023/10/21 03:54:03;;;;;;;6.10;5.25;;;;;;;-145.63;57.12;39372.34;5046725;28;20112;-67
2023/10/21 03:56:28;;;;;;;5.68;5.03;;;;;;;-145.63;56.93;39337.16;5046631;28;20032;-68
2023/10/21 03:58:54;;;;;;;5.63;4.93;;;;;;;-145.63;57.32;39360.63;5046376;28;20044;-67
2023/10/21 04:01:20;;;;;;;7.03;5.00;;;;;;;-145.63;57.25;39366.50;5045259;28;20028;-67
2023/10/21 04:03:46;;;;;;;5.45;4.95;;;;;;;-145.63;56.89;39344.97;5046563;28;20222;-68
2023/10/21 04:06:15;;;;;;;5.32;4.60;;;;;;;-145.63;56.68;39346.94;5046395;28;20044;-67
2023/10/21 04:08:41;;;;;;;5.93;4.60;;;;;;;-145.63;56.93;39337.16;5046307;28;20033;-67
2023/10/21 04:11:08;;;;;;;5.28;4.78;;;;;;;-145.63;57.09;39352.81;5046231;28;20033;-67
2023/10/21 04:13:34;;;;;;;5.53;4.95;;;;;;;-145.63;56.66;39399.75;5046238;28;20025;-67
2023/10/21 04:16:00;;;;;;;5.07;4.57;;;;;;;-145.63;57.11;39372.34;5046331;28;20021;-68
2023/10/21 04:18:26;;;;;;;5.20;4.70;;;;;;;-145.63;56.95;39378.22;5045682;28;20294;-68
2023/10/21 04:20:52;;;;;;;4.80;4.32;;;;;;;-145.63;56.58;39386.06;5045840;28;20302;-67
2023/10/21 04:23:18;;;;;;;5.70;5.20;;;;;;;-145.63;57.03;39395.84;5045858;28;20104;-68
2023/10/21 04:25:44;;;;;;;5.20;4.50;;;;;;;-145.63;56.59;39364.53;5046073;28;20107;-68
2023/10/21 04:28:10;;;;;;;6.03;5.00;;;;;;;-145.63;56.33;39165.06;5046072;28;20083;-69
2023/10/21 04:30:36;;;;;;;6.13;4.80;;;;;;;-145.63;56.71;39382.13;5046079;28;20620;-68
2023/10/21 04:33:02;;;;;;;5.95;4.93;;;;;;;-145.63;56.49;39368.44;5045876;28;20025;-68
2023/10/21 04:35:28;;;;;;;5.40;4.15;;;;;;;-145.63;55.94;39384.09;5045159;28;20033;-66
2023/10/21 04:37:55;;;;;;;4.55;4.15;;;;;;;-145.63;56.07;39364.53;5044719;28;20033;-67
2023/10/21 04:40:20;;;;;;;5.18;4.68;;;;;;;-145.63;55.67;39372.34;5045552;28;20051;-66
2023/10/21 04:42:46;;;;;;;4.75;4.30;;;;;;;-145.63;55.71;39354.75;5045889;28;20321;-67
2023/10/21 04:45:12;;;;;;;5.70;4.65;;;;;;;-145.63;56.16;39384.09;5045886;28;20040;-67
2023/10/21 04:47:38;;;;;;;4.75;4.03;;;;;;;-145.63;55.85;39382.13;5045218;28;20041;-67
2023/10/21 04:50:05;;;;;;;4.60;4.10;;;;;;;-145.63;56.38;39388.00;5045717;28;20333;-67
2023/10/21 04:52:32;;;;;;;5.28;4.78;;;;;;;-145.63;56.14;39360.63;5045709;28;20095;-67
2023/10/21 04:54:58;;;;;;;4.72;4.32;;;;;;;-145.63;55.90;39372.34;5045815;28;20097;-67
2023/10/21 04:57:23;;;;;;;6.57;4.63;;;;;;;-145.63;56.05;39352.81;5045095;28;20029;-67
2023/10/21 04:59:50;;;;;;;7.40;4.63;;;;;;;-145.63;56.11;39223.72;5044215;28;20067;-68
2023/10/21 05:02:16;;;;;;;4.70;4.15;;;;;;;-145.63;56.13;39395.84;5045184;28;20029;-66
2023/10/21 05:04:42;;;;;;;5.85;4.63;;;;;;;-145.63;55.95;39378.22;5045512;28;20036;-68
2023/10/21 05:07:08;;;;;;;5.15;4.65;;;;;;;-145.63;55.84;39372.34;5045473;28;20171;-67
2023/10/21 05:09:34;;;;;;;6.30;4.47;;;;;;;-145.63;55.51;39350.84;5044978;28;20029;-67
2023/10/21 05:12:03;;;;;;;6.65;4.35;;;;;;;-145.63;55.56;39380.19;5045410;28;20033;-66
2023/10/21 05:14:28;;;;;;;5.22;4.72;;;;;;;-145.63;55.74;39356.72;5045044;28;20053;-67
2023/10/21 05:16:54;;;;;;;5.30;4.65;;;;;;;-145.63;55.95;39376.28;5045245;28;20026;-68
2023/10/21 05:19:20;;;;;;;6.53;4.72;;;;;;;-145.63;55.78;39348.88;5044547;28;20057;-67
2023/10/21 05:21:45;;;;;;;5.82;4.72;;;;;;;-145.63;56.13;39364.53;5033415;28;20037;-67
2023/10/21 05:24:11;;;;;;;5.60;4.00;;;;;;;-145.63;55.59;39380.19;5044775;28;20325;-67
2023/10/21 05:26:37;;;;;;;5.68;5.07;;;;;;;-145.63;56.17;39370.41;5043728;28;20325;-67
2023/10/21 05:29:03;;;;;;;5.88;4.57;;;;;;;-145.63;55.71;39358.66;5044164;28;20028;-66
2023/10/21 05:31:29;;;;;;;5.50;4.40;;;;;;;-145.63;55.99;39362.59;5044492;28;20067;-68
2023/10/21 05:33:57;;;;;;;4.85;4.32;;;;;;;-145.63;55.92;39376.28;5045062;28;20026;-68
2023/10/21 05:36:26;;;;;;;4.68;4.18;;;;;;;-145.63;56.53;39378.22;5044717;28;20021;-67
2023/10/21 05:38:52;;;;;;;5.18;4.68;;;;;;;-145.63;56.04;39358.66;5044673;28;20026;-67
2023/10/21 05:41:17;;;;;;;4.28;3.88;;;;;;;-145.63;55.86;39366.50;5044654;28;20329;-67
2023/10/21 05:43:45;;;;;;;5.53;3.90;;;;;;;-145.63;55.89;39352.81;5044483;28;20044;-68
2023/10/21 05:46:10;;;;;;;5.40;4.03;;;;;;;-145.63;55.93;39380.19;5044468;28;20091;-67
2023/10/21 05:48:36;;;;;;;4.78;4.13;;;;;;;-145.63;55.95;39368.44;5044408;28;20037;-67
2023/10/21 05:51:02;;;;;;;4.88;4.38;;;;;;;-145.63;56.08;39384.09;5044476;28;20030;-67
2023/10/21 05:53:28;;;;;;;4.60;4.20;;;;;;;-145.63;56.11;39364.53;5044012;28;20072;-66
2023/10/21 05:55:55;;;;;;;4.45;4.05;;;;;;;-145.63;55.87;39344.97;5044276;28;20040;-66
2023/10/21 05:58:21;;;;;;;4.60;4.07;;;;;;;-145.63;56.00;39380.19;5044604;28;20214;-67
2023/10/21 06:00:47;;;;;;;4.65;3.95;;;;;;;-145.63;55.79;39380.19;5044277;28;20021;-67
2023/10/21 06:03:13;;;;;;;5.15;3.90;;;;;;;-145.63;55.55;39395.84;5044206;28;20093;-66
2023/10/21 06:05:39;;;;;;;4.72;4.32;;;;;;;-145.63;55.57;39343.03;5041858;28;20052;-66
2023/10/21 06:08:05;;;;;;;6.18;4.38;;;;;;;-145.63;55.04;39348.88;5043693;28;20022;-66
2023/10/21 06:10:31;;;;;;;4.50;4.10;;;;;;;-145.63;56.23;39354.75;5043927;28;20026;-66
2023/10/21 06:12:57;;;;;;;5.55;3.75;;;;;;;-145.63;55.38;39382.13;5043018;28;20029;-67
2023/10/21 06:15:22;;;;;;;5.60;4.38;;;;;;;-145.63;55.46;39376.28;5043863;28;20036;-68
2023/10/21 06:17:48;;;;;;;4.60;4.10;;;;;;;-145.63;56.18;39374.31;5044037;28;20017;-68
2023/10/21 06:20:13;;;;;;;5.05;4.57;;;;;;;-145.63;55.40;39360.63;5043226;28;20043;-68
2023/10/21 06:22:39;;;;;;;4.55;4.10;;;;;;;-145.63;55.44;39370.41;5043899;28;20029;-68
2023/10/21 06:25:05;;;;;;;4.63;4.22;;;;;;;-145.63;55.56;39364.53;5043902;28;20336;-68
2023/10/21 06:27:31;;;;;;;5.43;4.55;;;;;;;-145.63;55.81;39395.84;5043351;28;20144;-68
2023/10/21 06:29:57;;;;;;;6.13;4.30;;;;;;;-145.63;55.57;39380.19;5043548;28;20317;-67
2023/10/21 06:32:22;;;;;;;4.10;3.80;;;;;;;-145.63;55.50;39343.03;5043677;28;20036;-67
2023/10/21 06:34:48;;;;;;;4.45;3.88;;;;;;;-145.63;55.73;39343.03;5043485;28;20129;-68
2023/10/21 06:37:31;;;;;;;5.82;4.45;;;;;;;-145.63;55.86;39354.75;5023887;28;20044;-68
2023/10/21 06:39:57;;;;;;;4.60;4.20;;;;;;;-145.63;55.73;39354.75;5040538;28;20088;-67
2023/10/21 06:42:23;;;;;;;5.18;4.40;;;;;;;-145.63;55.91;39372.34;5043422;28;20384;-68
2023/10/21 06:44:49;;;;;;;5.72;5.15;;;;;;;-145.63;55.57;39366.50;5042271;28;20266;-67
2023/10/21 06:47:14;;;;;;;5.63;4.70;;;;;;;-145.63;55.65;39356.72;5043343;28;20079;-67
2023/10/21 06:49:40;;;;;;;5.97;4.70;;;;;;;-145.63;55.30;39329.34;5041806;28;20071;-66
2023/10/21 06:52:06;;;;;;;5.70;4.28;;;;;;;-145.63;55.34;39352.81;5043193;28;20041;-67
2023/10/21 06:54:32;;;;;;;5.82;4.05;;;;;;;-145.63;55.36;39360.63;5042834;28;20107;-68
2023/10/21 06:56:57;;;;;;;4.97;4.50;;;;;;;-145.63;55.82;39368.44;5042408;28;20017;-67
2023/10/21 06:59:23;;;;;;;4.43;3.88;;;;;;;-145.63;54.82;39364.53;5042929;28;20032;-67
2023/10/21 07:01:49;;;;;;;6.57;4.55;;;;;;;-145.63;55.29;39354.75;5043214;28;20025;-67
2023/10/21 07:04:14;;;;;;;7.00;4.30;;;;;;;-145.63;55.35;39372.34;5043088;28;20036;-67
2023/10/21 07:06:40;;;;;;;4.40;4.00;;;;;;;-145.63;54.76;39368.44;5041414;28;20025;-68
2023/10/21 07:09:09;;;;;;;5.13;3.95;;;;;;;-145.63;55.03;39356.72;5042600;28;20305;-68
2023/10/21 07:11:35;;;;;;;5.60;4.30;;;;;;;-145.63;54.70;39356.72;5042620;28;20033;-67
2023/10/21 07:14:00;;;;;;;5.82;4.18;;;;;;;-145.63;55.45;39327.38;5042317;28;20043;-67
2023/10/21 07:16:26;;;;;;;4.25;3.85;;;;;;;-145.63;54.71;39337.16;5042004;28;20045;-69
2023/10/21 07:18:52;;;;;;;4.40;3.90;;;;;;;-145.63;55.03;39386.06;5041551;28;20036;-66
2023/10/21 07:21:17;;;;;;;4.18;3.72;;;;;;;-145.63;54.74;39327.38;5041485;28;20040;-66
2023/10/21 07:23:43;;;;;;;7.18;3.85;;;;;;;-145.63;55.11;39356.72;5041604;28;20076;-66
2023/10/21 07:26:09;;;;;;;4.95;3.70;;;;;;;-145.63;54.96;39321.50;5041950;28;20025;-68
2023/10/21 07:28:34;;;;;;;4.95;3.90;;;;;;;-145.63;55.12;39327.38;5042611;28;20052;-67
2023/10/21 07:31:01;;;;;;;6.75;3.85;;;;;;;-145.63;54.38;39309.78;5042884;28;20029;-67
2023/10/21 07:33:27;;;;;;;4.43;4.03;;;;;;;-145.63;54.88;39313.69;5042591;28;20045;-67
2023/10/21 07:35:54;;;;;;;3.85;3.33;;;;;;;-145.63;54.28;39323.47;5043071;28;20024;-68
2023/10/21 07:38:20;;;;;;;5.00;3.63;;;;;;;-145.63;54.49;39319.56;5042207;28;20092;-66
2023/10/21 07:40:46;;;;;;;3.50;3.20;;;;;;;-145.63;54.15;39323.47;5039814;28;20037;-67
2023/10/21 07:43:12;;;;;;;3.72;3.40;;;;;;;-145.63;54.54;39327.38;5042455;28;20051;-67
2023/10/21 07:45:40;;;;;;;5.57;3.38;;;;;;;-145.63;54.51;39333.25;5041558;28;20321;-66
2023/10/21 07:48:07;;;;;;;21.80;17.17;;;;;;;-145.63;54.39;39341.06;5039096;28;20045;-67
2023/10/21 07:50:32;;;;;;;5.20;3.65;;;;;;;-145.63;54.11;39329.34;5042050;28;20092;-67
2023/10/21 07:52:58;;;;;;;5.60;3.22;;;;;;;-145.63;54.43;39329.34;5041089;28;20045;-67
2023/10/21 07:55:24;;;;;;;3.38;3.08;;;;;;;-145.63;53.48;39346.94;5041209;28;20294;-68
2023/10/21 07:57:49;;;;;;;3.38;3.00;;;;;;;-145.63;53.63;39321.50;5041747;28;20321;-67
2023/10/21 08:00:15;;;;;;;3.45;2.90;;;;;;;-145.63;53.54;39339.13;5041853;28;20040;-67
2023/10/21 08:02:41;;;;;;;3.22;2.70;;;;;;;-145.63;53.57;39327.38;5042226;28;20040;-68
2023/10/21 08:05:07;;;;;;;5.05;3.00;;;;;;;-145.63;53.36;39427.13;5041995;28;20041;-68
2023/10/21 08:07:34;;;;;;;4.47;3.67;;;;;;;-145.63;53.38;39344.97;5041040;28;20031;-66
2023/10/21 08:10:00;;;;;;;2.72;2.53;;;;;;;-145.63;53.51;39321.50;5042115;28;20116;-67
2023/10/21 08:12:25;;;;;;;8.55;4.55;;;;;;;-145.63;53.84;39341.06;5042120;28;20021;-67
2023/10/21 08:14:51;;;;;;;4.95;4.45;;;;;;;-145.63;53.93;39346.94;5042431;28;20036;-67
2023/10/21 08:17:17;;;;;;;3.17;2.88;;;;;;;-145.63;53.80;39339.13;5042493;28;20030;-68
2023/10/21 08:19:45;;;;;;;5.30;2.72;;;;;;;-145.63;53.82;39321.50;5041642;28;20056;-67
2023/10/21 08:22:11;;;;;;;5.05;3.05;;;;;;;-145.63;53.35;39313.69;5042336;28;20281;-67
2023/10/21 08:24:36;;;;;;;4.05;3.05;;;;;;;-145.63;52.92;39341.06;5042035;28;20037;-67
2023/10/21 08:27:04;;;;;;;6.63;3.17;;;;;;;-145.63;53.54;39307.81;5042356;28;20032;-66
2023/10/21 08:29:30;;;;;;;5.05;3.13;;;;;;;-145.63;53.63;39344.97;5041991;28;20328;-67
2023/10/21 08:31:56;;;;;;;5.50;3.28;;;;;;;-145.63;52.99;39343.03;5042308;28;20032;-68
2023/10/21 08:34:22;;;;;;;3.80;3.20;;;;;;;-145.63;52.73;39376.28;5042443;28;20033;-66
2023/10/21 08:36:48;;;;;;;5.00;3.38;;;;;;;-145.63;53.14;39436.91;5045295;28;20034;-68
2023/10/21 08:39:14;;;;;;;5.13;3.10;;;;;;;-145.63;53.69;39315.66;5045474;28;20033;-67
2023/10/21 08:41:40;;;;;;;4.43;3.20;;;;;;;-145.63;52.65;39329.34;5045272;28;20037;-68
2023/10/21 08:44:07;;;;;;;4.05;2.97;;;;;;;-145.63;52.99;39366.50;5044523;28;20024;-67
2023/10/21 08:46:34;;;;;;;5.15;3.15;;;;;;;-145.63;53.30;39352.81;5045665;28;20025;-67
2023/10/21 08:49:04;;;;;;;6.32;3.20;;;;;;;-145.63;52.98;39333.25;5044902;28;20026;-68
2023/10/21 08:51:32;;;;;;;4.57;3.30;;;;;;;-145.63;53.32;39321.50;5043992;28;20051;-68
2023/10/21 08:54:03;;;;;;;4.90;3.38;;;;;;;-145.63;53.00;39376.28;5045094;28;20108;-67
2023/10/21 08:56:30;;;;;;;5.35;3.03;;;;;;;-145.63;52.48;39337.16;5045303;28;20021;-67
2023/10/21 08:58:56;;;;;;;4.00;3.10;;;;;;;-145.63;52.81;39364.53;5044757;28;20091;-68
2023/10/21 09:01:24;;;;;;;5.20;3.50;;;;;;;-145.63;51.99;39237.41;5044997;28;20229;-67
2023/10/21 09:03:51;;;;;;;2.70;2.50;;;;;;;-145.63;52.57;39321.50;5045221;28;20071;-69
2023/10/21 09:06:19;;;;;;;4.93;3.00;;;;;;;-145.63;52.38;39337.16;5045136;28;20025;-67
2023/10/21 09:08:47;;;;;;;3.58;3.05;;;;;;;-145.63;52.08;39352.81;5044820;28;20096;-67
2023/10/21 09:11:15;;;;;;;5.05;3.75;;;;;;;-145.63;52.38;39321.50;5044902;28;20064;-67
2023/10/21 09:13:41;;;;;;;4.50;3.35;;;;;;;-145.63;52.45;39307.81;5045062;28;20026;-68
2023/10/21 09:16:20;;;;;;;3.50;3.20;;;;;;;-145.63;52.21;39352.81;5044508;28;20025;-67
2023/10/21 09:19:06;;;;;;;3.53;2.78;;;;;;;-145.63;51.37;39346.94;5044335;28;20041;-69
2023/10/21 09:21:39;;;;;;;3.40;3.10;;;;;;;-145.63;51.63;39348.88;5044393;28;20096;-68
2023/10/21 09:24:06;;;;;;;3.90;3.08;;;;;;;-145.63;51.43;39319.56;5038426;28;20260;-67
2023/10/21 09:26:37;;;;;;;4.30;3.03;;;;;;;-145.63;51.56;39337.16;5044272;28;20221;-67
2023/10/21 09:29:12;;;;;;;3.55;3.25;;;;;;;-145.63;51.17;39313.69;5044776;28;20034;-68
2023/10/21 09:31:42;;;;;;;3.35;2.97;;;;;;;-145.63;51.26;39341.06;5024852;28;20101;-68
2023/10/21 09:34:07;;;;;;;3.80;3.40;;;;;;;-145.63;51.86;39346.94;5041853;28;20029;-68
2023/10/21 09:36:42;;;;;;;4.13;3.72;;;;;;;-145.63;51.53;39352.81;5044332;28;20033;-68
2023/10/21 09:39:08;;;;;;;4.30;3.90;;;;;;;-145.63;51.05;39364.53;5043772;28;20053;-68
2023/10/21 09:41:35;;;;;;;4.45;3.53;;;;;;;-145.63;51.31;39343.03;5043719;28;20032;-68
2023/10/21 09:44:03;;;;;;;5.32;4.25;;;;;;;-145.63;51.39;39358.66;5044347;28;20038;-67
2023/10/21 09:46:30;;;;;;;6.07;3.60;;;;;;;-145.63;51.27;39329.34;5043303;28;20026;-67
2023/10/21 09:49:00;;;;;;;3.70;3.40;;;;;;;-145.63;50.53;39415.38;5044900;28;20025;-68
2023/10/21 09:51:30;;;;;;;4.82;4.43;;;;;;;-145.63;51.32;39311.72;5043810;28;20356;-68
2023/10/21 09:54:00;;;;;;;4.35;3.63;;;;;;;-145.63;51.59;39051.63;5044082;28;20037;-68
2023/10/21 09:56:27;;;;;;;4.30;3.40;;;;;;;-145.63;51.08;39433.00;5044117;28;20389;-67
2023/10/21 09:58:55;;;;;;;4.13;3.00;;;;;;;-145.63;51.26;39337.16;5043910;28;20033;-68
2023/10/21 10:01:23;;;;;;;5.40;3.97;;;;;;;-145.63;51.29;39382.13;5043847;28;20026;-66
2023/10/21 10:03:52;;;;;;;5.25;3.63;;;;;;;-145.63;50.84;39339.13;5043831;28;20029;-68
2023/10/21 10:06:19;;;;;;;4.47;4.05;;;;;;;-145.63;51.16;39348.88;5044039;28;20283;-66
2023/10/21 10:08:47;;;;;;;4.63;4.18;;;;;;;-145.63;51.06;39313.69;5043940;28;20032;-67
2023/10/21 10:11:16;;;;;;;3.97;3.40;;;;;;;-145.63;50.99;39313.69;5044098;28;20029;-68
2023/10/21 10:13:46;;;;;;;4.70;3.60;;;;;;;-145.63;50.43;39329.34;5043622;28;20372;-68
2023/10/21 10:16:23;;;;;;;4.50;4.10;;;;;;;-145.63;51.38;39339.13;5043575;28;20063;-69
2023/10/21 10:18:50;;;;;;;5.28;3.63;;;;;;;-145.63;51.23;39247.19;5043525;28;20041;-68
2023/10/21 10:21:17;;;;;;;3.80;3.42;;;;;;;-145.63;50.69;39325.41;5043574;28;20100;-68
2023/10/21 10:23:58;;;;;;;3.75;3.35;;;;;;;-145.63;50.43;39339.13;5041714;28;20049;-68
2023/10/21 10:26:39;;;;;;;4.07;3.40;;;;;;;-145.63;50.50;39352.81;5043023;28;20084;-68
2023/10/21 10:29:25;;;;;;;10.25;8.95;;;;;;;-145.63;50.49;39348.88;5043664;28;20071;-67
2023/10/21 10:32:14;;;;;;;5.03;3.47;;;;;;;-145.63;50.47;39341.06;5022789;28;20125;-68
2023/10/21 10:34:53;;;;;;;4.22;3.65;;;;;;;-145.63;50.05;39352.81;5023871;28;20034;-67
2023/10/21 10:37:30;;;;;;;6.60;3.58;;;;;;;-145.63;50.47;39366.50;5056591;28;20331;-70
2023/10/21 10:39:55;;;;;;;3.25;2.95;;;;;;;-145.63;50.01;39337.16;5043643;28;20177;-69
2023/10/21 10:42:30;;;;;;;3.30;3.00;;;;;;;-145.63;49.14;39311.72;5043325;28;20031;-69
2023/10/21 10:44:56;;;;;;;4.97;3.25;;;;;;;-145.63;49.25;39315.66;5043495;28;20258;-68
2023/10/21 10:47:22;;;;;;;3.67;3.28;;;;;;;-145.63;48.50;39327.38;5043364;28;20028;-67
2023/10/21 10:49:59;;;;;;;5.53;3.40;;;;;;;-145.63;49.25;39350.84;5043350;28;20384;-68
2023/10/21 10:52:31;;;;;;;5.80;4.15;;;;;;;-145.63;49.08;39360.63;5043164;28;20302;-68
2023/10/21 10:55:08;;;;;;;14.52;11.93;;;;;;;-145.63;48.81;39092.69;5042047;28;20213;-67
2023/10/21 10:57:34;;;;;;;7.78;7.03;;;;;;;-145.63;49.06;39362.59;5024863;28;20029;-68
2023/10/21 11:00:00;;;;;;;8.25;7.18;;;;;;;-145.63;48.92;39327.38;5043074;28;20029;-67
2023/10/21 11:02:28;;;;;;;3.42;3.08;;;;;;;-145.63;49.17;39403.66;5043327;28;20344;-70
2023/10/21 11:04:59;;;;;;;4.25;3.85;;;;;;;-145.63;48.41;39366.50;5025728;28;20067;-68
2023/10/21 11:07:31;;;;;;;4.57;3.70;;;;;;;-145.63;48.78;39343.03;5025666;28;20021;-68
2023/10/21 11:10:06;;;;;;;4.03;3.50;;;;;;;-145.63;47.37;39333.25;5043065;28;20021;-67
2023/10/21 11:12:32;;;;;;;3.45;3.15;;;;;;;-145.63;47.29;39313.69;5043026;28;20029;-68
2023/10/21 11:15:00;;;;;;;3.33;3.03;;;;;;;-145.63;47.20;38552.97;5042874;28;20032;-67
2023/10/21 11:17:26;;;;;;;3.33;3.00;;;;;;;-145.63;48.48;39341.06;5042807;28;20025;-68